sensor_id;sensor_type;location;lat;lon;timestamp;pressure;altitude;pressure_sealevel;temperature;humidity
28606;BME280;46498;49.968;7.754;2023-05-19T00:02:24;-18573.00;;;9.28;65.88
28606;BME280;46498;49.968;7.754;2023-05-19T00:07:29;-18569.00;;;9.13;67.83
28606;BME280;46498;49.968;7.754;2023-05-19T00:12:30;-18567.00;;;9.08;68.80
28606;BME280;46498;49.968;7.754;2023-05-19T00:17:31;-18567.00;;;9.09;66.08
28606;BME280;46498;49.968;7.754;2023-05-19T00:22:34;-18568.00;;;9.12;66.02
28606;BME280;46498;49.968;7.754;2023-05-19T00:27:36;-18565.00;;;9.02;66.40
28606;BME280;46498;49.968;7.754;2023-05-19T00:32:37;-18563.00;;;8.94;67.29
28606;BME280;46498;49.968;7.754;2023-05-19T00:37:38;-18563.00;;;8.94;68.26
28606;BME280;46498;49.968;7.754;2023-05-19T00:42:40;-18561.00;;;8.88;69.33
28606;BME280;46498;49.968;7.754;2023-05-19T00:47:44;-18559.00;;;8.84;69.37
28606;BME280;46498;49.968;7.754;2023-05-19T00:52:45;-18556.00;;;8.73;70.10
28606;BME280;46498;49.968;7.754;2023-05-19T00:57:48;-18553.00;;;8.64;71.13
28606;BME280;46498;49.968;7.754;2023-05-19T01:02:49;-18553.00;;;8.65;71.16
28606;BME280;46498;49.968;7.754;2023-05-19T01:07:51;-18550.00;;;8.53;72.30
28606;BME280;46498;49.968;7.754;2023-05-19T01:12:53;-18553.00;;;8.63;71.03
28606;BME280;46498;49.968;7.754;2023-05-19T01:18:07;-18553.00;;;8.65;70.97
28606;BME280;46498;49.968;7.754;2023-05-19T01:30:23;-18550.00;;;8.54;71.46
28606;BME280;46498;49.968;7.754;2023-05-19T01:35:26;-18549.00;;;8.52;73.58
28606;BME280;46498;49.968;7.754;2023-05-19T01:40:29;-18545.00;;;8.39;73.62
28606;BME280;46498;49.968;7.754;2023-05-19T01:45:32;-18541.00;;;8.25;73.87
28606;BME280;46498;49.968;7.754;2023-05-19T01:50:33;-18539.00;;;8.20;75.85
28606;BME280;46498;49.968;7.754;2023-05-19T01:55:42;-18541.00;;;8.27;74.79
28606;BME280;46498;49.968;7.754;2023-05-19T02:00:57;-18544.00;;;8.37;73.62
28606;BME280;46498;49.968;7.754;2023-05-19T02:08:05;-18537.00;;;8.14;76.55
28606;BME280;46498;49.968;7.754;2023-05-19T02:13:12;-18531.00;;;7.95;79.33
28606;BME280;46498;49.968;7.754;2023-05-19T02:18:14;-18527.00;;;7.81;80.26
28606;BME280;46498;49.968;7.754;2023-05-19T02:23:18;-18531.00;;;7.96;78.31
28606;BME280;46498;49.968;7.754;2023-05-19T02:28:18;-18532.00;;;7.97;77.84
28606;BME280;46498;49.968;7.754;2023-05-19T02:33:19;-18530.00;;;7.91;79.43
28606;BME280;46498;49.968;7.754;2023-05-19T02:38:24;-18535.00;;;8.08;78.03
28606;BME280;46498;49.968;7.754;2023-05-19T02:43:26;-18529.00;;;7.89;78.89
28606;BME280;46498;49.968;7.754;2023-05-19T02:48:30;-18517.00;;;7.51;81.70
28606;BME280;46498;49.968;7.754;2023-05-19T02:53:31;-18514.00;;;7.42;82.64
28606;BME280;46498;49.968;7.754;2023-05-19T02:58:31;-18516.00;;;7.48;81.94
28606;BME280;46498;49.968;7.754;2023-05-19T03:03:32;-18514.00;;;7.41;83.32
28606;BME280;46498;49.968;7.754;2023-05-19T03:08:34;-18518.00;;;7.53;81.92
28606;BME280;46498;49.968;7.754;2023-05-19T03:13:35;-18524.00;;;7.74;80.32
28606;BME280;46498;49.968;7.754;2023-05-19T03:18:37;-18525.00;;;7.76;80.25
28606;BME280;46498;49.968;7.754;2023-05-19T03:23:38;-18524.00;;;7.74;80.56
28606;BME280;46498;49.968;7.754;2023-05-19T03:28:39;-18525.00;;;7.75;80.63
28606;BME280;46498;49.968;7.754;2023-05-19T03:33:39;-18520.00;;;7.59;81.46
28606;BME280;46498;49.968;7.754;2023-05-19T03:38:41;-18512.00;;;7.36;83.08
28606;BME280;46498;49.968;7.754;2023-05-19T03:43:42;-18506.00;;;7.17;84.79
28606;BME280;46498;49.968;7.754;2023-05-19T03:48:43;-18504.00;;;7.11;86.16
28606;BME280;46498;49.968;7.754;2023-05-19T03:54:35;-18505.00;;;7.15;86.40
28606;BME280;46498;49.968;7.754;2023-05-19T03:59:38;-18499.00;;;6.95;87.81
28606;BME280;46498;49.968;7.754;2023-05-19T04:04:40;-18502.00;;;7.05;87.66
28606;BME280;46498;49.968;7.754;2023-05-19T04:09:41;-18501.00;;;7.01;88.56
28606;BME280;46498;49.968;7.754;2023-05-19T04:14:42;-18499.00;;;6.93;88.76
28606;BME280;46498;49.968;7.754;2023-05-19T04:19:43;-18498.00;;;6.91;91.41
28606;BME280;46498;49.968;7.754;2023-05-19T04:24:44;-18503.00;;;7.08;91.30
28606;BME280;46498;49.968;7.754;2023-05-19T04:29:46;-18511.00;;;7.32;89.29
28606;BME280;46498;49.968;7.754;2023-05-19T04:34:47;-18519.00;;;7.57;89.36
28606;BME280;46498;49.968;7.754;2023-05-19T04:39:54;-18527.00;;;7.84;86.21
28606;BME280;46498;49.968;7.754;2023-05-19T04:44:56;-18534.00;;;8.03;86.05
28606;BME280;46498;49.968;7.754;2023-05-19T04:50:02;-18539.00;;;8.20;84.81
28606;BME280;46498;49.968;7.754;2023-05-19T04:55:04;-18543.00;;;8.34;86.40
28606;BME280;46498;49.968;7.754;2023-05-19T05:00:08;-18555.00;;;8.71;82.21
28606;BME280;46498;49.968;7.754;2023-05-19T05:05:19;-18562.00;;;8.91;81.30
28606;BME280;46498;49.968;7.754;2023-05-19T05:10:20;-18572.00;;;9.24;79.93
28606;BME280;46498;49.968;7.754;2023-05-19T05:15:22;-18580.00;;;9.49;81.87
28606;BME280;46498;49.968;7.754;2023-05-19T05:20:25;-18585.00;;;9.66;82.34
28606;BME280;46498;49.968;7.754;2023-05-19T05:25:26;-18592.00;;;9.87;78.99
28606;BME280;46498;49.968;7.754;2023-05-19T05:30:28;-18593.00;;;9.90;78.57
28606;BME280;46498;49.968;7.754;2023-05-19T05:35:30;-18589.00;;;9.77;82.46
28606;BME280;46498;49.968;7.754;2023-05-19T05:40:32;-18597.00;;;10.02;86.00
28606;BME280;46498;49.968;7.754;2023-05-19T05:45:33;-18602.00;;;10.19;80.24
28606;BME280;46498;49.968;7.754;2023-05-19T05:50:35;-18610.00;;;10.44;76.60
28606;BME280;46498;49.968;7.754;2023-05-19T05:55:38;-18622.00;;;10.81;74.57
28606;BME280;46498;49.968;7.754;2023-05-19T06:00:40;-18632.00;;;11.11;73.56
28606;BME280;46498;49.968;7.754;2023-05-19T06:05:43;-18630.00;;;11.06;64.19
28606;BME280;46498;49.968;7.754;2023-05-19T06:10:44;-18628.00;;;10.99;64.92
28606;BME280;46498;49.968;7.754;2023-05-19T06:15:49;-18643.00;;;11.46;61.68
28606;BME280;46498;49.968;7.754;2023-05-19T06:20:55;-18636.00;;;11.24;58.62
28606;BME280;46498;49.968;7.754;2023-05-19T06:25:56;-18637.00;;;11.26;61.19
28606;BME280;46498;49.968;7.754;2023-05-19T06:30:57;-18655.00;;;11.85;61.11
28606;BME280;46498;49.968;7.754;2023-05-19T06:36:14;-18647.00;;;11.58;60.91
28606;BME280;46498;49.968;7.754;2023-05-19T06:41:30;-18663.00;;;12.09;58.34
28606;BME280;46498;49.968;7.754;2023-05-19T06:46:32;-18668.00;;;12.23;60.42
28606;BME280;46498;49.968;7.754;2023-05-19T06:51:33;-18666.00;;;12.20;57.42
28606;BME280;46498;49.968;7.754;2023-05-19T06:56:35;-18658.00;;;11.93;59.62
28606;BME280;46498;49.968;7.754;2023-05-19T07:01:36;-18665.00;;;12.16;59.65
28606;BME280;46498;49.968;7.754;2023-05-19T07:06:38;-18664.00;;;12.13;57.57
28606;BME280;46498;49.968;7.754;2023-05-19T07:11:39;-18655.00;;;11.85;62.39
28606;BME280;46498;49.968;7.754;2023-05-19T07:16:42;-18666.00;;;12.20;57.99
28606;BME280;46498;49.968;7.754;2023-05-19T07:21:43;-18673.00;;;12.41;56.98
28606;BME280;46498;49.968;7.754;2023-05-19T07:26:44;-18680.00;;;12.64;55.77
28606;BME280;46498;49.968;7.754;2023-05-19T07:31:45;-18669.00;;;12.28;55.72
28606;BME280;46498;49.968;7.754;2023-05-19T07:36:46;-18668.00;;;12.26;59.78
28606;BME280;46498;49.968;7.754;2023-05-19T07:41:47;-18678.00;;;12.57;57.73
28606;BME280;46498;49.968;7.754;2023-05-19T07:46:54;-18699.00;;;13.23;59.38
28606;BME280;46498;49.968;7.754;2023-05-19T07:51:55;-18700.00;;;13.25;56.83
28606;BME280;46498;49.968;7.754;2023-05-19T07:56:56;-18680.00;;;12.64;57.64
28606;BME280;46498;49.968;7.754;2023-05-19T08:01:57;-18697.00;;;13.18;59.03
28606;BME280;46498;49.968;7.754;2023-05-19T08:06:58;-18703.00;;;13.34;58.07
28606;BME280;46498;49.968;7.754;2023-05-19T08:11:59;-18709.00;;;13.53;56.50
28606;BME280;46498;49.968;7.754;2023-05-19T08:17:01;-18710.00;;;13.56;56.71
28606;BME280;46498;49.968;7.754;2023-05-19T08:22:02;-18697.00;;;13.16;56.11
28606;BME280;46498;49.968;7.754;2023-05-19T08:27:03;-18713.00;;;13.66;60.52
28606;BME280;46498;49.968;7.754;2023-05-19T08:32:04;-18732.00;;;14.27;56.53
28606;BME280;46498;49.968;7.754;2023-05-19T08:37:06;-18739.00;;;14.49;56.66
28606;BME280;46498;49.968;7.754;2023-05-19T08:42:07;-18725.00;;;14.03;56.20
28606;BME280;46498;49.968;7.754;2023-05-19T08:47:09;-18719.00;;;13.87;55.11
28606;BME280;46498;49.968;7.754;2023-05-19T08:53:46;-18719.00;;;13.84;56.44
28606;BME280;46498;49.968;7.754;2023-05-19T08:58:49;-18733.00;;;14.28;52.23
28606;BME280;46498;49.968;7.754;2023-05-19T09:03:51;-18737.00;;;14.41;51.68
28606;BME280;46498;49.968;7.754;2023-05-19T09:08:52;-18730.00;;;14.20;51.07
28606;BME280;46498;49.968;7.754;2023-05-19T09:13:53;-18729.00;;;14.15;50.21
28606;BME280;46498;49.968;7.754;2023-05-19T09:18:55;-18727.00;;;14.09;51.14
28606;BME280;46498;49.968;7.754;2023-05-19T09:24:03;-18741.00;;;14.54;54.56
28606;BME280;46498;49.968;7.754;2023-05-19T09:29:16;-18732.00;;;14.26;49.31
28606;BME280;46498;49.968;7.754;2023-05-19T09:34:17;-18731.00;;;14.23;52.39
28606;BME280;46498;49.968;7.754;2023-05-19T09:39:21;-18760.00;;;15.13;56.90
28606;BME280;46498;49.968;7.754;2023-05-19T09:44:23;-18757.00;;;15.03;52.27
28606;BME280;46498;49.968;7.754;2023-05-19T09:49:29;-18757.00;;;15.04;51.43
28606;BME280;46498;49.968;7.754;2023-05-19T09:54:32;-18748.00;;;14.76;50.49
28606;BME280;46498;49.968;7.754;2023-05-19T09:59:33;-18749.00;;;14.81;50.01
28606;BME280;46498;49.968;7.754;2023-05-19T10:04:35;-18776.00;;;15.65;49.70
28606;BME280;46498;49.968;7.754;2023-05-19T10:09:36;-18781.00;;;15.81;49.57
28606;BME280;46498;49.968;7.754;2023-05-19T10:14:39;-18781.00;;;15.79;47.58
28606;BME280;46498;49.968;7.754;2023-05-19T10:19:42;-18802.00;;;16.46;54.00
28606;BME280;46498;49.968;7.754;2023-05-19T10:24:43;-18826.00;;;17.22;46.06
28606;BME280;46498;49.968;7.754;2023-05-19T10:29:47;-18805.00;;;16.54;46.29
28606;BME280;46498;49.968;7.754;2023-05-19T10:35:12;-18787.00;;;15.98;48.31
28606;BME280;46498;49.968;7.754;2023-05-19T10:40:20;-18772.00;;;15.51;49.39
28606;BME280;46498;49.968;7.754;2023-05-19T10:45:26;-18776.00;;;15.63;46.20
28606;BME280;46498;49.968;7.754;2023-05-19T10:50:36;-18826.00;;;17.23;47.11
28606;BME280;46498;49.968;7.754;2023-05-19T10:55:45;-18828.00;;;17.29;48.71
28606;BME280;46498;49.968;7.754;2023-05-19T11:00:59;-18827.00;;;17.23;44.82
28606;BME280;46498;49.968;7.754;2023-05-19T11:12:55;-18842.00;;;17.73;45.64
28606;BME280;46498;49.968;7.754;2023-05-19T11:18:00;-18830.00;;;17.33;43.24
28606;BME280;46498;49.968;7.754;2023-05-19T11:23:05;-18801.00;;;16.41;44.26
28606;BME280;46498;49.968;7.754;2023-05-19T11:28:08;-18803.00;;;16.48;43.88
28606;BME280;46498;49.968;7.754;2023-05-19T11:33:09;-18801.00;;;16.44;44.37
28606;BME280;46498;49.968;7.754;2023-05-19T11:38:12;-18805.00;;;16.55;45.63
28606;BME280;46498;49.968;7.754;2023-05-19T11:43:13;-18804.00;;;16.51;44.12
28606;BME280;46498;49.968;7.754;2023-05-19T11:48:14;-18806.00;;;16.59;45.82
28606;BME280;46498;49.968;7.754;2023-05-19T11:53:17;-18812.00;;;16.78;46.14
28606;BME280;46498;49.968;7.754;2023-05-19T11:58:24;-18819.00;;;16.99;44.47
28606;BME280;46498;49.968;7.754;2023-05-19T12:03:26;-18833.00;;;17.43;43.42
28606;BME280;46498;49.968;7.754;2023-05-19T12:08:28;-18844.00;;;17.78;41.97
28606;BME280;46498;49.968;7.754;2023-05-19T12:13:29;-18857.00;;;18.19;43.87
28606;BME280;46498;49.968;7.754;2023-05-19T12:18:35;-18852.00;;;18.03;41.68
28606;BME280;46498;49.968;7.754;2023-05-19T12:23:37;-18831.00;;;17.38;42.42
28606;BME280;46498;49.968;7.754;2023-05-19T12:28:38;-18810.00;;;16.70;42.46
28606;BME280;46498;49.968;7.754;2023-05-19T12:33:39;-18815.00;;;16.87;44.91
28606;BME280;46498;49.968;7.754;2023-05-19T12:38:41;-18806.00;;;16.58;44.68
28606;BME280;46498;49.968;7.754;2023-05-19T12:43:42;-18821.00;;;17.07;45.25
28606;BME280;46498;49.968;7.754;2023-05-19T12:48:44;-18822.00;;;17.09;44.54
28606;BME280;46498;49.968;7.754;2023-05-19T12:53:45;-18835.00;;;17.51;42.87
28606;BME280;46498;49.968;7.754;2023-05-19T12:58:52;-18825.00;;;17.18;41.65
28606;BME280;46498;49.968;7.754;2023-05-19T13:03:54;-18813.00;;;16.80;43.60
28606;BME280;46498;49.968;7.754;2023-05-19T13:08:55;-18815.00;;;16.87;42.52
28606;BME280;46498;49.968;7.754;2023-05-19T13:13:56;-18797.00;;;16.31;42.94
28606;BME280;46498;49.968;7.754;2023-05-19T13:18:57;-18800.00;;;16.39;42.67
28606;BME280;46498;49.968;7.754;2023-05-19T13:23:59;-18816.00;;;16.89;43.01
28606;BME280;46498;49.968;7.754;2023-05-19T13:29:01;-18819.00;;;16.99;42.08
28606;BME280;46498;49.968;7.754;2023-05-19T13:34:02;-18806.00;;;16.59;41.92
28606;BME280;46498;49.968;7.754;2023-05-19T13:39:03;-18813.00;;;16.79;43.85
28606;BME280;46498;49.968;7.754;2023-05-19T13:44:04;-18824.00;;;17.14;44.13
28606;BME280;46498;49.968;7.754;2023-05-19T13:49:05;-18808.00;;;16.66;43.46
28606;BME280;46498;49.968;7.754;2023-05-19T13:54:06;-18809.00;;;16.69;44.20
28606;BME280;46498;49.968;7.754;2023-05-19T13:59:07;-18822.00;;;17.10;43.67
28606;BME280;46498;49.968;7.754;2023-05-19T14:04:08;-18817.00;;;16.92;45.06
28606;BME280;46498;49.968;7.754;2023-05-19T14:09:10;-18812.00;;;16.76;45.06
28606;BME280;46498;49.968;7.754;2023-05-19T14:14:12;-18799.00;;;16.38;45.33
28606;BME280;46498;49.968;7.754;2023-05-19T14:19:13;-18801.00;;;16.44;44.28
28606;BME280;46498;49.968;7.754;2023-05-19T14:24:14;-18805.00;;;16.56;46.44
28606;BME280;46498;49.968;7.754;2023-05-19T14:29:15;-18807.00;;;16.61;45.45
28606;BME280;46498;49.968;7.754;2023-05-19T14:34:16;-18795.00;;;16.26;46.69
28606;BME280;46498;49.968;7.754;2023-05-19T14:39:20;-18794.00;;;16.21;47.91
28606;BME280;46498;49.968;7.754;2023-05-19T14:44:21;-18789.00;;;16.06;45.45
28606;BME280;46498;49.968;7.754;2023-05-19T14:49:25;-18788.00;;;16.02;46.44
28606;BME280;46498;49.968;7.754;2023-05-19T14:54:26;-18801.00;;;16.44;48.08
28606;BME280;46498;49.968;7.754;2023-05-19T14:59:26;-18808.00;;;16.64;46.26
28606;BME280;46498;49.968;7.754;2023-05-19T15:04:29;-18804.00;;;16.52;47.49
28606;BME280;46498;49.968;7.754;2023-05-19T15:09:30;-18801.00;;;16.44;47.87
28606;BME280;46498;49.968;7.754;2023-05-19T15:14:31;-18796.00;;;16.26;48.28
28606;BME280;46498;49.968;7.754;2023-05-19T15:19:32;-18796.00;;;16.27;46.73
28606;BME280;46498;49.968;7.754;2023-05-19T15:24:33;-18794.00;;;16.20;47.24
28606;BME280;46498;49.968;7.754;2023-05-19T15:29:34;-18796.00;;;16.27;47.15
28606;BME280;46498;49.968;7.754;2023-05-19T15:34:35;-18797.00;;;16.31;47.00
28606;BME280;46498;49.968;7.754;2023-05-19T15:39:36;-18793.00;;;16.16;47.70
28606;BME280;46498;49.968;7.754;2023-05-19T15:44:37;-18786.00;;;15.97;48.07
28606;BME280;46498;49.968;7.754;2023-05-19T15:49:38;-18789.00;;;16.04;47.76
28606;BME280;46498;49.968;7.754;2023-05-19T15:54:39;-18790.00;;;16.09;47.78
28606;BME280;46498;49.968;7.754;2023-05-19T15:59:40;-18787.00;;;16.00;49.48
28606;BME280;46498;49.968;7.754;2023-05-19T16:04:41;-18789.00;;;16.06;47.92
28606;BME280;46498;49.968;7.754;2023-05-19T16:09:41;-18784.00;;;15.91;48.68
28606;BME280;46498;49.968;7.754;2023-05-19T16:14:43;-18782.00;;;15.84;48.56
28606;BME280;46498;49.968;7.754;2023-05-19T16:19:44;-18779.00;;;15.75;49.34
28606;BME280;46498;49.968;7.754;2023-05-19T16:24:45;-18779.00;;;15.75;49.95
28606;BME280;46498;49.968;7.754;2023-05-19T16:29:46;-18782.00;;;15.82;48.32
28606;BME280;46498;49.968;7.754;2023-05-19T16:34:47;-18783.00;;;15.87;48.49
28606;BME280;46498;49.968;7.754;2023-05-19T16:39:47;-18776.00;;;15.65;49.30
28606;BME280;46498;49.968;7.754;2023-05-19T16:44:48;-18777.00;;;15.67;50.20
28606;BME280;46498;49.968;7.754;2023-05-19T16:49:49;-18779.00;;;15.74;49.03
28606;BME280;46498;49.968;7.754;2023-05-19T16:54:51;-18773.00;;;15.53;50.18
28606;BME280;46498;49.968;7.754;2023-05-19T16:59:52;-18771.00;;;15.49;51.12
28606;BME280;46498;49.968;7.754;2023-05-19T17:04:52;-18773.00;;;15.54;51.25
28606;BME280;46498;49.968;7.754;2023-05-19T17:09:54;-18773.00;;;15.56;51.30
28606;BME280;46498;49.968;7.754;2023-05-19T17:14:56;-18777.00;;;15.67;51.22
28606;BME280;46498;49.968;7.754;2023-05-19T17:19:57;-18771.00;;;15.50;51.46
28606;BME280;46498;49.968;7.754;2023-05-19T17:24:58;-18773.00;;;15.53;50.73
28606;BME280;46498;49.968;7.754;2023-05-19T17:29:59;-18768.00;;;15.40;51.71
28606;BME280;46498;49.968;7.754;2023-05-19T17:35:00;-18770.00;;;15.46;51.89
28606;BME280;46498;49.968;7.754;2023-05-19T17:40:03;-18774.00;;;15.59;51.66
28606;BME280;46498;49.968;7.754;2023-05-19T17:45:05;-18768.00;;;15.39;51.71
28606;BME280;46498;49.968;7.754;2023-05-19T17:50:08;-18768.00;;;15.38;52.19
28606;BME280;46498;49.968;7.754;2023-05-19T17:55:10;-18767.00;;;15.37;52.43
28606;BME280;46498;49.968;7.754;2023-05-19T18:00:12;-18764.00;;;15.27;52.10
28606;BME280;46498;49.968;7.754;2023-05-19T18:05:14;-18764.00;;;15.28;51.93
28606;BME280;46498;49.968;7.754;2023-05-19T18:10:16;-18764.00;;;15.28;52.81
28606;BME280;46498;49.968;7.754;2023-05-19T18:15:17;-18764.00;;;15.27;52.68
28606;BME280;46498;49.968;7.754;2023-05-19T18:20:19;-18760.00;;;15.15;53.80
28606;BME280;46498;49.968;7.754;2023-05-19T18:25:19;-18763.00;;;15.23;52.57
28606;BME280;46498;49.968;7.754;2023-05-19T18:30:21;-18763.00;;;15.25;52.83
28606;BME280;46498;49.968;7.754;2023-05-19T18:35:22;-18754.00;;;14.96;53.82
28606;BME280;46498;49.968;7.754;2023-05-19T18:40:23;-18755.00;;;14.99;54.33
28606;BME280;46498;49.968;7.754;2023-05-19T18:45:24;-18748.00;;;14.75;52.68
28606;BME280;46498;49.968;7.754;2023-05-19T18:50:25;-18744.00;;;14.64;53.35
28606;BME280;46498;49.968;7.754;2023-05-19T18:55:26;-18740.00;;;14.52;53.46
28606;BME280;46498;49.968;7.754;2023-05-19T19:00:27;-18743.00;;;14.60;52.72
28606;BME280;46498;49.968;7.754;2023-05-19T19:05:28;-18738.00;;;14.46;52.55
28606;BME280;46498;49.968;7.754;2023-05-19T19:10:30;-18731.00;;;14.22;53.65
28606;BME280;46498;49.968;7.754;2023-05-19T19:15:34;-18728.00;;;14.15;53.92
28606;BME280;46498;49.968;7.754;2023-05-19T19:20:35;-18727.00;;;14.10;54.44
28606;BME280;46498;49.968;7.754;2023-05-19T19:25:36;-18722.00;;;13.94;53.97
28606;BME280;46498;49.968;7.754;2023-05-19T19:30:37;-18719.00;;;13.85;55.52
28606;BME280;46498;49.968;7.754;2023-05-19T19:35:38;-18713.00;;;13.66;56.80
28606;BME280;46498;49.968;7.754;2023-05-19T19:40:38;-18708.00;;;13.49;55.79
28606;BME280;46498;49.968;7.754;2023-05-19T19:45:39;-18704.00;;;13.38;55.96
28606;BME280;46498;49.968;7.754;2023-05-19T19:50:41;-18704.00;;;13.38;55.82
28606;BME280;46498;49.968;7.754;2023-05-19T19:55:42;-18701.00;;;13.29;56.22
28606;BME280;46498;49.968;7.754;2023-05-19T20:00:43;-18696.00;;;13.13;57.35
28606;BME280;46498;49.968;7.754;2023-05-19T20:05:43;-18696.00;;;13.13;55.16
28606;BME280;46498;49.968;7.754;2023-05-19T20:10:45;-18694.00;;;13.08;55.74
28606;BME280;46498;49.968;7.754;2023-05-19T20:15:47;-18693.00;;;13.03;55.88
28606;BME280;46498;49.968;7.754;2023-05-19T20:20:48;-18693.00;;;13.03;56.15
28606;BME280;46498;49.968;7.754;2023-05-19T20:25:49;-18691.00;;;12.97;56.86
28606;BME280;46498;49.968;7.754;2023-05-19T20:31:10;-18688.00;;;12.89;56.67
28606;BME280;46498;49.968;7.754;2023-05-19T20:36:11;-18687.00;;;12.84;55.73
28606;BME280;46498;49.968;7.754;2023-05-19T20:41:13;-18685.00;;;12.79;55.68
28606;BME280;46498;49.968;7.754;2023-05-19T20:46:14;-18686.00;;;12.80;54.89
28606;BME280;46498;49.968;7.754;2023-05-19T20:51:15;-18684.00;;;12.76;54.23
28606;BME280;46498;49.968;7.754;2023-05-19T20:56:16;-18687.00;;;12.84;53.45
28606;BME280;46498;49.968;7.754;2023-05-19T21:01:17;-18690.00;;;12.93;52.97
28606;BME280;46498;49.968;7.754;2023-05-19T21:06:18;-18690.00;;;12.95;52.86
28606;BME280;46498;49.968;7.754;2023-05-19T21:11:18;-18692.00;;;12.99;52.34
28606;BME280;46498;49.968;7.754;2023-05-19T21:16:21;-18693.00;;;13.03;52.20
28606;BME280;46498;49.968;7.754;2023-05-19T21:21:22;-18692.00;;;13.01;52.25
28606;BME280;46498;49.968;7.754;2023-05-19T21:26:23;-18693.00;;;13.02;52.91
28606;BME280;46498;49.968;7.754;2023-05-19T21:31:24;-18689.00;;;12.91;53.18
28606;BME280;46498;49.968;7.754;2023-05-19T21:36:25;-18692.00;;;13.02;53.13
28606;BME280;46498;49.968;7.754;2023-05-19T21:41:26;-18694.00;;;13.05;53.16
28606;BME280;46498;49.968;7.754;2023-05-19T21:46:27;-18691.00;;;12.99;53.78
28606;BME280;46498;49.968;7.754;2023-05-19T21:51:29;-18694.00;;;13.08;53.99
28606;BME280;46498;49.968;7.754;2023-05-19T21:56:31;-18694.00;;;13.08;54.51
28606;BME280;46498;49.968;7.754;2023-05-19T22:01:32;-18693.00;;;13.04;54.40
28606;BME280;46498;49.968;7.754;2023-05-19T22:06:33;-18694.00;;;13.06;54.66
28606;BME280;46498;49.968;7.754;2023-05-19T22:11:34;-18696.00;;;13.12;54.97
28606;BME280;46498;49.968;7.754;2023-05-19T22:16:35;-18699.00;;;13.21;55.08
28606;BME280;46498;49.968;7.754;2023-05-19T22:21:36;-18696.00;;;13.11;55.21
28606;BME280;46498;49.968;7.754;2023-05-19T22:26:37;-18695.00;;;13.11;55.75
28606;BME280;46498;49.968;7.754;2023-05-19T22:31:42;-18695.00;;;13.09;55.15
28606;BME280;46498;49.968;7.754;2023-05-19T22:36:42;-18694.00;;;13.05;55.76
28606;BME280;46498;49.968;7.754;2023-05-19T22:41:45;-18692.00;;;12.99;56.18
28606;BME280;46498;49.968;7.754;2023-05-19T22:46:46;-18692.00;;;13.00;57.08
28606;BME280;46498;49.968;7.754;2023-05-19T22:51:47;-18692.00;;;13.01;56.30
28606;BME280;46498;49.968;7.754;2023-05-19T22:56:48;-18692.00;;;12.99;56.55
28606;BME280;46498;49.968;7.754;2023-05-19T23:01:49;-18689.00;;;12.92;56.89
28606;BME280;46498;49.968;7.754;2023-05-19T23:06:50;-18689.00;;;12.90;57.81
28606;BME280;46498;49.968;7.754;2023-05-19T23:11:52;-18690.00;;;12.93;58.34
28606;BME280;46498;49.968;7.754;2023-05-19T23:16:53;-18690.00;;;12.94;58.11
28606;BME280;46498;49.968;7.754;2023-05-19T23:21:54;-18691.00;;;12.97;57.28
28606;BME280;46498;49.968;7.754;2023-05-19T23:26:55;-18686.00;;;12.82;58.56
28606;BME280;46498;49.968;7.754;2023-05-19T23:31:56;-18687.00;;;12.85;58.75
28606;BME280;46498;49.968;7.754;2023-05-19T23:36:57;-18683.00;;;12.73;60.46
28606;BME280;46498;49.968;7.754;2023-05-19T23:41:58;-18683.00;;;12.72;61.24
28606;BME280;46498;49.968;7.754;2023-05-19T23:46:58;-18683.00;;;12.72;60.59
28606;BME280;46498;49.968;7.754;2023-05-19T23:51:59;-18683.00;;;12.72;61.33
28606;BME280;46498;49.968;7.754;2023-05-19T23:57:01;-18681.00;;;12.66;62.39
